KGNA

The Bay of Grand Marais Airport

Grand Marais, Minnesota, USA
METAR KGNA 170356Z AUTO 27004KT 03/M05 A3000 RMK AO1 SLP166 T00281050
Observed Flight Rules
Oct-17 @ 03:56 UTC (14 minutes ago)
Wind
270° at 4 knots
Temperatures Readings
Current 3°C / 37°F
Dewpoint -5°C / 23°F
Humidity 56%
Altimeter 30" Hg
Pressure 1016.6 hPa
Elevation 185
METAR KGNA 170356Z AUTO 27004KT 03/M05 A3000 RMK AO1 SLP166 T00281050
Observed Flight Rules
Oct-17 @ 03:56 UTC
(14 minutes ago)
Wind
270° at 4 knots
Temperature Dewpoint
3°C / 37°F -5°C / 23°F
Humidity Altimeter Pressure
56% 30" Hg 1016.6 hPa